createdAt,value
2023-01-07T00:02:13.400Z,1.10
2023-01-07T00:07:14.995Z,2.23
2023-01-07T00:12:16.819Z,1.27
2023-01-07T00:17:18.379Z,1.20
2023-01-07T00:22:19.990Z,0.97
2023-01-07T00:27:21.598Z,0.90
2023-01-07T00:32:43.381Z,0.90
2023-01-07T00:37:50.634Z,0.90
2023-01-07T00:42:55.207Z,1.00
2023-01-07T00:48:01.187Z,1.47
2023-01-07T00:53:03.344Z,0.77
2023-01-07T00:58:05.457Z,0.90
2023-01-07T01:03:08.263Z,0.90
2023-01-07T01:08:11.493Z,0.90
2023-01-07T01:13:18.042Z,1.07
2023-01-07T01:18:19.935Z,1.03
2023-01-07T01:23:21.889Z,1.30
2023-01-07T01:28:23.403Z,1.10
2023-01-07T01:33:25.347Z,1.00
2023-01-07T01:38:27.072Z,1.03
2023-01-07T01:43:40.261Z,1.07
2023-01-07T01:48:48.037Z,1.23
2023-01-07T01:53:50.998Z,0.83
2023-01-07T01:58:56.223Z,1.20
2023-01-07T02:03:58.372Z,1.10
2023-01-07T02:09:00.250Z,1.40
2023-01-07T02:14:17.604Z,1.13
2023-01-07T02:19:52.119Z,1.40
2023-01-07T02:25:15.345Z,1.40
2023-01-07T02:30:26.071Z,1.20
2023-01-07T02:35:41.744Z,1.50
2023-01-07T02:41:02.604Z,1.40
2023-01-07T02:46:29.514Z,1.30
2023-01-07T02:51:33.567Z,1.17
2023-01-07T02:57:12.490Z,1.30
2023-01-07T03:02:24.368Z,1.57
2023-01-07T03:07:41.700Z,1.33
2023-01-07T03:12:50.236Z,1.30
2023-01-07T03:18:11.876Z,1.23
2023-01-07T03:23:15.129Z,1.17
2023-01-07T03:28:24.388Z,1.20
2023-01-07T03:33:32.713Z,1.23
2023-01-07T03:38:36.233Z,1.63
2023-01-07T03:43:37.945Z,1.17
2023-01-07T03:48:39.872Z,1.40
2023-01-07T03:53:41.557Z,1.40
2023-01-07T03:58:43.645Z,2.23
2023-01-07T04:03:45.307Z,1.17
2023-01-07T04:08:47.221Z,1.10
2023-01-07T04:13:49.072Z,2.20
2023-01-07T04:18:51.292Z,1.40
2023-01-07T04:23:53.217Z,1.50
2023-01-07T04:28:55.238Z,1.53
2023-01-07T04:33:56.933Z,1.50
2023-01-07T04:38:59.628Z,2.00
2023-01-07T04:44:02.492Z,1.40
2023-01-07T04:49:04.169Z,1.60
2023-01-07T04:54:06.046Z,1.80
2023-01-07T04:59:08.243Z,1.43
2023-01-07T05:04:10.410Z,1.40
2023-01-07T05:09:12.442Z,1.10
2023-01-07T05:14:14.212Z,1.73
2023-01-07T05:19:16.065Z,0.90
2023-01-07T05:24:21.553Z,1.20
2023-01-07T05:29:23.272Z,1.27
2023-01-07T05:34:24.991Z,1.13
2023-01-07T05:39:26.996Z,1.43
2023-01-07T05:44:29.011Z,1.10
2023-01-07T05:49:30.622Z,0.80
2023-01-07T05:54:32.217Z,1.17
2023-01-07T05:59:34.920Z,1.10
2023-01-07T06:04:36.561Z,0.90
2023-01-07T06:09:38.296Z,1.07
2023-01-07T06:14:39.978Z,1.10
2023-01-07T06:19:41.800Z,0.70
2023-01-07T06:24:43.583Z,1.53
2023-01-07T06:29:45.273Z,1.10
2023-01-07T06:34:46.909Z,1.00
2023-01-07T06:39:48.564Z,1.00
2023-01-07T06:44:50.191Z,1.43
2023-01-07T06:49:52.499Z,0.80
2023-01-07T06:54:54.195Z,0.87
2023-01-07T06:59:56.035Z,1.00
2023-01-07T07:04:57.696Z,1.10
2023-01-07T07:09:59.297Z,0.83
2023-01-07T07:15:01.005Z,1.00
2023-01-07T07:20:02.560Z,2.20
2023-01-07T07:25:04.949Z,1.10
2023-01-07T07:30:08.160Z,0.90
2023-01-07T07:35:10.617Z,1.00
2023-01-07T07:40:12.561Z,1.27
2023-01-07T07:45:16.153Z,1.00
2023-01-07T07:50:17.927Z,1.27
2023-01-07T07:55:20.082Z,1.93
2023-01-07T08:00:27.802Z,0.97
2023-01-07T08:05:30.140Z,1.20
2023-01-07T08:10:31.714Z,1.07
2023-01-07T08:15:42.514Z,1.20
2023-01-07T08:20:44.094Z,1.30
2023-01-07T08:25:45.710Z,1.40
2023-01-07T08:30:47.316Z,1.40
2023-01-07T08:35:48.848Z,1.80
2023-01-07T08:40:50.421Z,2.00
2023-01-07T08:45:52.365Z,2.00
2023-01-07T08:50:54.831Z,2.63
2023-01-07T08:55:56.421Z,2.03
2023-01-07T09:01:03.242Z,2.13
2023-01-07T09:06:04.962Z,2.33
2023-01-07T09:11:06.578Z,2.33
2023-01-07T09:16:08.436Z,2.60
2023-01-07T09:21:10.247Z,2.50
2023-01-07T09:26:11.881Z,2.50
2023-01-07T09:31:13.600Z,3.17
2023-01-07T09:36:15.215Z,2.60
2023-01-07T09:41:40.629Z,2.97
2023-01-07T09:46:43.658Z,2.43
2023-01-07T09:51:51.142Z,3.07
2023-01-07T09:56:53.037Z,2.47
2023-01-07T10:02:24.239Z,2.10
2023-01-07T10:07:34.136Z,2.10
2023-01-07T10:12:54.074Z,1.70
2023-01-07T10:18:12.438Z,1.53
2023-01-07T10:23:24.049Z,1.40
2023-01-07T10:28:45.221Z,1.50
2023-01-07T10:33:48.238Z,1.50
2023-01-07T10:39:28.542Z,2.30
2023-01-07T10:45:00.692Z,1.20
2023-01-07T10:50:28.199Z,1.30
2023-01-07T10:55:51.609Z,1.50
2023-01-07T11:00:53.351Z,1.10
2023-01-07T11:05:59.014Z,1.13
2023-01-07T11:11:00.612Z,1.70
2023-01-07T11:16:10.114Z,1.23
2023-01-07T11:21:42.940Z,1.37
2023-01-07T11:26:33.674Z,1.30
2023-01-07T11:31:51.245Z,1.40
2023-01-07T11:36:52.846Z,1.37
2023-01-07T11:41:59.865Z,1.10
2023-01-07T11:47:03.096Z,1.10
2023-01-07T11:52:04.712Z,1.00
2023-01-07T11:57:32.673Z,3.33
2023-01-07T12:02:37.220Z,1.10
2023-01-07T12:07:45.219Z,0.93
2023-01-07T12:12:46.795Z,1.20
2023-01-07T12:17:52.239Z,1.10
2023-01-07T12:23:29.282Z,1.10
2023-01-07T12:28:57.471Z,1.30
2023-01-07T12:34:04.814Z,1.20
2023-01-07T12:39:14.001Z,1.47
2023-01-07T12:44:22.149Z,1.30
2023-01-07T12:49:29.023Z,1.40
2023-01-07T12:54:59.651Z,1.20
2023-01-07T13:00:21.185Z,1.60
2023-01-07T13:05:26.619Z,1.40
2023-01-07T13:10:37.004Z,1.20
2023-01-07T13:15:40.615Z,1.43
2023-01-07T13:21:06.462Z,1.20
2023-01-07T13:26:23.948Z,1.50
2023-01-07T13:31:44.615Z,1.97
2023-01-07T13:36:54.644Z,1.10
2023-01-07T13:42:13.684Z,1.13
2023-01-07T13:47:19.160Z,1.10
2023-01-07T13:52:22.442Z,1.20
2023-01-07T13:57:23.955Z,1.70
2023-01-07T14:02:27.239Z,1.37
2023-01-07T14:07:29.065Z,1.57
2023-01-07T14:12:50.460Z,1.60
2023-01-07T14:18:02.702Z,1.60
2023-01-07T14:23:23.099Z,1.53
2023-01-07T14:28:30.426Z,1.73
2023-01-07T14:33:53.333Z,2.10
2023-01-07T14:38:59.027Z,1.60
2023-01-07T14:44:27.293Z,2.00
2023-01-07T14:49:48.666Z,1.80
2023-01-07T14:55:23.797Z,1.80
2023-01-07T15:00:49.346Z,1.80
2023-01-07T15:06:11.900Z,1.70
2023-01-07T15:11:40.400Z,1.80
2023-01-07T15:16:42.575Z,2.10
2023-01-07T15:21:59.110Z,2.00
2023-01-07T15:27:05.383Z,1.80
2023-01-07T15:32:14.550Z,1.83
2023-01-07T15:37:17.602Z,2.00
2023-01-07T15:42:22.152Z,1.70
2023-01-07T15:47:41.123Z,2.10
2023-01-07T15:52:49.471Z,2.00
2023-01-07T15:57:53.401Z,1.80
2023-01-07T16:02:55.591Z,2.20
2023-01-07T16:07:58.408Z,2.00
2023-01-07T16:13:18.206Z,2.10
2023-01-07T16:18:19.917Z,1.73
2023-01-07T16:23:26.619Z,2.00
2023-01-07T16:28:35.152Z,2.00
2023-01-07T16:33:37.731Z,2.17
2023-01-07T16:38:39.536Z,2.30
2023-01-07T16:43:43.179Z,2.37
2023-01-07T16:48:45.908Z,2.00
2023-01-07T16:53:47.615Z,1.90
2023-01-07T16:58:52.885Z,2.00
2023-01-07T17:03:57.540Z,2.20
2023-01-07T17:08:59.148Z,2.40
2023-01-07T17:14:00.787Z,2.27
2023-01-07T17:19:28.021Z,2.13
2023-01-07T17:24:29.480Z,2.50
2023-01-07T17:29:36.632Z,2.70
2023-01-07T17:34:40.547Z,2.33
2023-01-07T17:39:43.550Z,2.47
2023-01-07T17:44:48.363Z,2.10
2023-01-07T17:49:49.866Z,2.30
2023-01-07T17:54:51.418Z,2.23
2023-01-07T17:59:52.975Z,2.17
2023-01-07T18:04:54.495Z,2.30
2023-01-07T18:09:56.091Z,2.17
2023-01-07T18:15:01.819Z,2.40
2023-01-07T18:20:03.583Z,2.60
2023-01-07T18:25:06.170Z,2.20
2023-01-07T18:30:12.006Z,2.10
2023-01-07T18:35:14.315Z,2.13
2023-01-07T18:40:15.843Z,3.27
2023-01-07T18:45:20.148Z,2.60
2023-01-07T18:50:21.787Z,2.20
2023-01-07T18:55:23.498Z,2.90
2023-01-07T19:00:25.032Z,2.27
2023-01-07T19:05:27.573Z,2.50
2023-01-07T19:10:29.084Z,2.57
2023-01-07T19:15:30.661Z,3.17
2023-01-07T19:20:33.989Z,3.10
2023-01-07T19:25:35.641Z,2.60
2023-01-07T19:30:37.253Z,2.43
2023-01-07T19:35:38.847Z,2.37
2023-01-07T19:40:44.019Z,2.43
2023-01-07T19:45:56.940Z,2.80
2023-01-07T19:51:00.734Z,2.80
2023-01-07T19:56:05.815Z,2.70
2023-01-07T20:01:15.755Z,2.67
2023-01-07T20:06:19.785Z,2.90
2023-01-07T20:11:21.933Z,2.50
2023-01-07T20:16:24.303Z,2.60
2023-01-07T20:21:26.089Z,2.53
2023-01-07T20:26:29.392Z,2.30
2023-01-07T20:31:31.388Z,2.50
2023-01-07T20:36:33.114Z,1.83
2023-01-07T20:41:35.352Z,2.63
2023-01-07T20:46:39.080Z,2.60
2023-01-07T20:51:40.850Z,2.20
2023-01-07T20:56:42.875Z,2.10
2023-01-07T21:01:44.577Z,1.93
2023-01-07T21:06:46.327Z,2.63
2023-01-07T21:11:48.197Z,2.10
2023-01-07T21:16:49.972Z,2.13
2023-01-07T21:21:51.590Z,2.23
2023-01-07T21:26:53.193Z,2.37
2023-01-07T21:31:54.872Z,2.20
2023-01-07T21:36:56.511Z,2.20
2023-01-07T21:41:58.250Z,2.47
2023-01-07T21:46:59.787Z,2.40
2023-01-07T21:52:01.761Z,3.30
2023-01-07T21:57:03.832Z,1.77
2023-01-07T22:02:05.559Z,2.70
2023-01-07T22:07:13.536Z,2.00
2023-01-07T22:12:15.368Z,2.40
2023-01-07T22:17:17.197Z,2.47
2023-01-07T22:22:20.815Z,2.10
2023-01-07T22:27:22.347Z,2.00
2023-01-07T22:32:23.902Z,2.00
2023-01-07T22:37:26.773Z,1.77
2023-01-07T22:42:32.854Z,1.80
2023-01-07T22:47:38.738Z,2.03
2023-01-07T22:52:41.622Z,1.80
2023-01-07T22:57:43.253Z,1.60
2023-01-07T23:02:44.789Z,1.60
2023-01-07T23:07:46.379Z,1.87
2023-01-07T23:12:47.960Z,1.73
2023-01-07T23:17:49.641Z,1.77
2023-01-07T23:22:51.323Z,1.77
2023-01-07T23:27:52.985Z,2.10
2023-01-07T23:32:54.513Z,1.87
2023-01-07T23:37:56.251Z,2.73
2023-01-07T23:42:57.888Z,1.90
2023-01-07T23:47:59.540Z,1.87
2023-01-07T23:53:01.202Z,2.10
2023-01-07T23:58:02.920Z,1.60
